臺中航空站 - ATIS

METAR RCMQ 170430Z 31003KT 9999 FEW010 SCT200 34/25 Q0998 NOSIG RMK A2948=

站台狀態:Online
最後更新:2019-07-17 12:30:02